首页
METAR-TAF:

METAR-TAF

机场 :

Nörvenich, 德国

纬度: 50-50N, 经度: 006-40E, 海拔: 118米

当前天气观测

该预报发布于20分钟前的01:20 UTC
风速7节,风向北转西北
温度 4°C
湿度 93%
气压 1005 hPa
能見度: 4500
散云层高于400英尺
阴天层高于1000英尺
轻雾

METAR: ETNN 180120Z 33007KT 4500 BR SCT004 OVC010 04/03 Q1005 GRN

时间: 02:40 (01:40 UTC)


TAF: 丢失

超过4000个机场的气象观测和天气预报(METAR&TAF报告)。

可查询的气象台以黄色和红色小点在地图上表示。

将鼠标移到小点上方,可查看气象台名称。

然后点击查看天气观测和预报。

如需切换地图:点击带黑十字的绿色按钮放大地图;点击带横线的绿色按钮缩小地图;或者点击绿色箭头查看邻近地区的地图。


METAR-TAF: